Time;durP1;ratioP1;P1;durP2;ratioP2;P2;SDS_P1;SDS_P2;PMS_P1;PMS_P2;Temp;Humidity;BMP_temperature;BMP_pressure;BME280_temperature;BME280_humidity;BME280_pressure;Samples;Min_cycle;Max_cycle;Signal;HPM_P1;HPM_P2
2023/05/03 00:01:45;;;;;;;;;;;3.10;99.90;;;;;;5008221;28;19926;-65
2023/05/03 00:04:10;;;;;;;;;;;3.10;99.90;;;;;;5009935;28;19930;-65
2023/05/03 00:06:36;;;;;;;;;;;3.10;99.90;;;;;;5014917;28;19997;-66
2023/05/03 00:09:01;;;;;;;;;;;3.10;99.90;;;;;;5012023;28;19921;-63
2023/05/03 00:11:27;;;;;;;;;;;3.00;99.90;;;;;;5007609;28;19925;-65
2023/05/03 00:13:52;;;;;;;;;;;3.00;99.90;;;;;;5011079;28;19925;-65
2023/05/03 00:16:18;;;;;;;;;;;2.90;99.90;;;;;;5014792;28;19925;-65
2023/05/03 00:18:44;;;;;;;;;;;2.90;99.90;;;;;;5003298;28;19922;-65
2023/05/03 00:21:09;;;;;;;;;;;2.90;99.90;;;;;;5006816;28;19925;-65
2023/05/03 00:23:35;;;;;;;;;;;2.80;99.90;;;;;;5014575;28;19921;-65
2023/05/03 00:26:00;;;;;;;;;;;2.80;99.90;;;;;;5010168;28;19928;-65
2023/05/03 00:28:26;;;;;;;;;;;2.80;99.90;;;;;;5000846;28;20273;-65
2023/05/03 00:30:51;;;;;;;;;;;2.80;99.90;;;;;;5010761;28;19952;-64
2023/05/03 00:33:17;;;;;;;;;;;2.70;99.90;;;;;;5014592;28;19975;-65
2023/05/03 00:35:43;;;;;;;;;;;2.70;99.90;;;;;;5004169;28;19922;-65
2023/05/03 00:38:09;;;;;;;;;;;2.80;99.90;;;;;;5006592;28;19925;-65
2023/05/03 00:40:34;;;;;;;;;;;2.70;99.90;;;;;;5012766;28;20071;-65
2023/05/03 00:43:00;;;;;;;;;;;2.80;99.90;;;;;;5009179;28;19930;-65
2023/05/03 00:45:25;;;;;;;;;;;2.70;99.90;;;;;;5003702;28;19922;-66
2023/05/03 00:47:51;;;;;;;;;;;2.70;99.90;;;;;;5012095;28;19928;-65
2023/05/03 00:50:16;;;;;;;;;;;2.70;99.90;;;;;;5014220;28;19971;-66
2023/05/03 00:52:42;;;;;;;;;;;2.60;99.90;;;;;;5008314;28;19921;-64
2023/05/03 00:55:08;;;;;;;;;;;2.60;99.90;;;;;;5006172;28;19921;-66
2023/05/03 00:57:33;;;;;;;;;;;2.60;99.90;;;;;;5028850;28;19921;-67
2023/05/03 00:59:59;;;;;;;;;;;2.60;99.90;;;;;;5008180;28;19969;-66
2023/05/03 01:02:25;;;;;;;;;;;2.60;99.90;;;;;;5003752;28;19925;-66
2023/05/03 01:04:52;;;;;;;;;;;2.60;99.90;;;;;;5013578;28;19921;-67
2023/05/03 01:07:17;;;;;;;;;;;2.50;99.90;;;;;;5013622;28;19936;-67
2023/05/03 01:10:18;;;;;;;;;;;2.50;99.90;;;;;;4999789;28;19923;-67
2023/05/03 01:13:02;;;;;;;;;;;2.40;99.90;;;;;;4929544;29;20437;-67
2023/05/03 01:15:30;;;;;;;;;;;2.40;99.90;;;;;;4989063;28;19933;-67
2023/05/03 01:18:03;;;;;;;;;;;2.40;99.90;;;;;;5003566;28;19921;-66
2023/05/03 01:20:29;;;;;;;;;;;2.40;99.90;;;;;;5011928;28;20164;-67
2023/05/03 01:22:55;;;;;;;;;;;2.40;99.90;;;;;;5012055;28;19925;-67
2023/05/03 01:25:21;;;;;;;;;;;2.40;99.90;;;;;;5013672;28;20469;-67
2023/05/03 01:27:46;;;;;;;;;;;2.30;99.90;;;;;;5011070;28;20020;-66
2023/05/03 01:30:12;;;;;;;;;;;2.30;99.90;;;;;;5001884;28;19937;-67
2023/05/03 01:32:45;;;;;;;;;;;2.30;99.90;;;;;;5007808;28;19928;-67
2023/05/03 01:35:14;;;;;;;;;;;2.30;99.90;;;;;;5013167;28;20014;-67
2023/05/03 01:37:40;;;;;;;;;;;2.30;99.90;;;;;;5001723;28;19921;-66
2023/05/03 01:40:07;;;;;;;;;;;2.30;99.90;;;;;;5010126;28;19925;-66
2023/05/03 01:42:35;;;;;;;;;;;2.30;99.90;;;;;;5013432;28;20020;-67
2023/05/03 01:45:02;;;;;;;;;;;2.20;99.90;;;;;;5004980;28;19940;-65
2023/05/03 01:47:28;;;;;;;;;;;2.30;99.90;;;;;;5000409;28;19948;-66
2023/05/03 01:49:54;;;;;;;;;;;2.30;99.90;;;;;;5012984;28;20387;-67
2023/05/03 01:52:19;;;;;;;;;;;2.20;99.90;;;;;;5023227;28;20000;-67
2023/05/03 01:54:45;;;;;;;;;;;2.30;99.90;;;;;;4998695;28;20016;-66
2023/05/03 01:57:10;;;;;;;;;;;2.30;99.90;;;;;;5011654;28;19985;-67
2023/05/03 01:59:36;;;;;;;;;;;2.30;99.90;;;;;;5012595;28;20376;-66
2023/05/03 02:02:01;;;;;;;;;;;2.20;99.90;;;;;;5006546;28;19954;-67
2023/05/03 02:04:27;;;;;;;;;;;2.20;99.90;;;;;;5003124;28;19921;-66
2023/05/03 02:06:52;;;;;;;;;;;2.10;99.90;;;;;;5012604;28;19927;-66
2023/05/03 02:09:18;;;;;;;;;;;2.10;99.90;;;;;;5005812;28;20423;-66
2023/05/03 02:11:43;;;;;;;;;;;2.10;99.90;;;;;;5011464;28;20008;-66
2023/05/03 02:14:09;;;;;;;;;;;2.00;99.90;;;;;;5010865;28;19921;-67
2023/05/03 02:16:35;;;;;;;;;;;2.00;99.90;;;;;;5012707;28;19933;-67
2023/05/03 02:19:00;;;;;;;;;;;2.00;99.90;;;;;;5000494;28;19922;-67
2023/05/03 02:21:26;;;;;;;;;;;2.10;99.90;;;;;;5009350;28;20295;-66
2023/05/03 02:23:52;;;;;;;;;;;2.10;99.90;;;;;;5012606;28;19928;-66
2023/05/03 02:26:18;;;;;;;;;;;2.00;99.90;;;;;;5014510;28;19921;-67
2023/05/03 02:28:43;;;;;;;;;;;2.10;99.90;;;;;;5003899;28;19983;-66
2023/05/03 02:31:09;;;;;;;;;;;2.10;99.90;;;;;;5012111;28;19926;-67
2023/05/03 02:33:34;;;;;;;;;;;2.00;99.90;;;;;;5009697;28;19925;-67
2023/05/03 02:36:00;;;;;;;;;;;2.10;99.90;;;;;;5006830;28;19921;-66
2023/05/03 02:38:25;;;;;;;;;;;2.10;99.90;;;;;;5027213;28;19925;-66
2023/05/03 02:40:51;;;;;;;;;;;2.10;99.90;;;;;;5012364;28;20064;-66
2023/05/03 02:43:16;;;;;;;;;;;2.00;99.90;;;;;;5006209;28;19925;-66
2023/05/03 02:45:42;;;;;;;;;;;1.90;99.90;;;;;;5000560;28;19925;-67
2023/05/03 02:48:08;;;;;;;;;;;1.60;99.90;;;;;;5011544;28;19921;-66
2023/05/03 02:50:34;;;;;;;;;;;1.60;99.90;;;;;;5011167;28;19928;-66
2023/05/03 02:53:00;;;;;;;;;;;1.60;99.90;;;;;;4999410;28;20372;-65
2023/05/03 02:55:26;;;;;;;;;;;1.50;99.90;;;;;;5014245;28;20446;-67
2023/05/03 02:57:51;;;;;;;;;;;1.50;99.90;;;;;;5013823;28;19925;-67
2023/05/03 03:00:17;;;;;;;;;;;1.40;99.90;;;;;;4999605;28;20058;-67
2023/05/03 03:02:43;;;;;;;;;;;1.30;99.90;;;;;;5011131;28;20303;-67
2023/05/03 03:05:08;;;;;;;;;;;1.20;99.90;;;;;;5011964;28;19946;-66
2023/05/03 03:07:35;;;;;;;;;;;1.20;99.90;;;;;;5007098;28;19925;-67
2023/05/03 03:10:01;;;;;;;;;;;1.30;99.90;;;;;;4994754;28;19922;-67
2023/05/03 03:12:27;;;;;;;;;;;1.30;99.90;;;;;;5003687;28;19929;-66
2023/05/03 03:14:53;;;;;;;;;;;1.30;99.90;;;;;;5008011;28;20371;-67
2023/05/03 03:17:18;;;;;;;;;;;1.40;99.90;;;;;;4998497;28;19952;-66
2023/05/03 03:19:44;;;;;;;;;;;1.30;99.90;;;;;;5008520;28;19970;-65
2023/05/03 03:22:09;;;;;;;;;;;1.40;99.90;;;;;;5011475;28;19925;-65
2023/05/03 03:24:35;;;;;;;;;;;1.30;99.90;;;;;;5009487;28;19922;-66
2023/05/03 03:27:00;;;;;;;;;;;1.30;99.90;;;;;;5007555;28;20045;-65
2023/05/03 03:29:27;;;;;;;;;;;1.40;99.90;;;;;;5010918;28;19926;-65
2023/05/03 03:31:53;;;;;;;;;;;1.40;99.90;;;;;;5011597;28;20424;-66
2023/05/03 03:34:18;;;;;;;;;;;1.40;99.90;;;;;;5002240;28;19926;-64
2023/05/03 03:36:44;;;;;;;;;;;1.30;99.90;;;;;;5001704;28;19922;-65
2023/05/03 03:39:10;;;;;;;;;;;1.20;99.90;;;;;;5016013;28;19921;-65
2023/05/03 03:41:35;;;;;;;;;;;1.30;99.90;;;;;;5014270;28;19933;-65
2023/05/03 03:44:01;;;;;;;;;;;1.20;99.90;;;;;;5006177;28;19921;-66
2023/05/03 03:46:27;;;;;;;;;;;1.20;99.90;;;;;;5002361;28;19921;-65
2023/05/03 03:48:52;;;;;;;;;;;1.10;99.90;;;;;;5011806;28;20380;-67
2023/05/03 03:51:18;;;;;;;;;;;1.20;99.90;;;;;;5013804;28;20383;-65
2023/05/03 03:53:43;;;;;;;;;;;1.10;99.90;;;;;;5015416;28;20008;-65
2023/05/03 03:56:08;;;;;;;;;;;1.10;99.90;;;;;;5014847;28;19925;-65
2023/05/03 03:58:34;;;;;;;;;;;1.10;99.90;;;;;;5010958;28;19927;-66
2023/05/03 04:01:00;;;;;;;;;;;1.10;99.90;;;;;;5004347;28;19952;-66
2023/05/03 04:03:26;;;;;;;;;;;1.10;99.90;;;;;;5014828;28;19926;-65
2023/05/03 04:05:51;;;;;;;;;;;1.10;99.90;;;;;;5009456;28;20300;-65
2023/05/03 04:08:17;;;;;;;;;;;1.10;99.90;;;;;;5004615;28;19960;-66
2023/05/03 04:10:43;;;;;;;;;;;1.10;99.90;;;;;;5014147;28;20391;-66
2023/05/03 04:13:09;;;;;;;;;;;1.10;99.90;;;;;;5014147;28;19922;-66
2023/05/03 04:15:34;;;;;;;;;;;1.10;99.90;;;;;;5004516;28;19921;-65
2023/05/03 04:18:00;;;;;;;;;;;1.10;99.90;;;;;;5013398;28;19922;-66
2023/05/03 04:20:25;;;;;;;;;;;1.20;99.90;;;;;;5014450;28;19928;-65
2023/05/03 04:22:51;;;;;;;;;;;1.20;99.90;;;;;;5005076;28;19932;-65
2023/05/03 04:25:17;;;;;;;;;;;1.20;99.90;;;;;;5005227;28;19952;-66
2023/05/03 04:27:43;;;;;;;;;;;1.30;99.90;;;;;;5013791;28;19921;-65
2023/05/03 04:30:09;;;;;;;;;;;1.30;99.90;;;;;;5014595;28;20299;-65
2023/05/03 04:32:36;;;;;;;;;;;1.30;99.90;;;;;;5010554;28;19928;-65
2023/05/03 04:35:08;;;;;;;;;;;1.30;99.90;;;;;;5013591;28;20347;-66
2023/05/03 04:37:34;;;;;;;;;;;1.40;99.90;;;;;;5014059;28;19927;-65
2023/05/03 04:39:59;;;;;;;;;;;1.40;99.90;;;;;;5002173;28;19932;-65
2023/05/03 04:42:25;;;;;;;;;;;1.40;99.90;;;;;;5015838;28;19929;-65
2023/05/03 04:44:51;;;;;;;;;;;1.40;99.90;;;;;;5017478;28;19973;-65
2023/05/03 04:47:17;;;;;;;;;;;1.40;99.90;;;;;;5014481;28;19975;-65
2023/05/03 04:49:42;;;;;;;;;;;1.50;99.90;;;;;;5009892;28;19921;-65
2023/05/03 04:52:09;;;;;;;;;;;1.50;99.90;;;;;;5010375;28;19960;-66
2023/05/03 04:54:34;;;;;;;;;;;1.50;99.90;;;;;;4999261;28;20012;-66
2023/05/03 04:57:00;;;;;;;;;;;1.50;99.90;;;;;;4994879;28;20021;-65
2023/05/03 04:59:26;;;;;;;;;;;1.50;99.90;;;;;;5010513;28;19925;-65
2023/05/03 05:01:51;;;;;;;;;;;1.60;99.90;;;;;;4999273;28;19925;-65
2023/05/03 05:04:17;;;;;;;;;;;1.70;99.90;;;;;;5004249;28;20345;-65
2023/05/03 05:06:42;;;;;;;;;;;1.70;99.90;;;;;;4997101;28;20379;-66
2023/05/03 05:09:18;;;;;;;;;;;1.80;99.90;;;;;;5007757;28;19928;-65
2023/05/03 05:11:44;;;;;;;;;;;1.80;99.90;;;;;;5009464;28;19925;-65
2023/05/03 05:14:10;;;;;;;;;;;1.90;99.90;;;;;;4999684;28;20013;-67
2023/05/03 05:16:35;;;;;;;;;;;1.90;99.90;;;;;;5003935;28;19921;-67
2023/05/03 05:19:00;;;;;;;;;;;1.90;99.90;;;;;;5003589;28;19929;-67
2023/05/03 05:21:27;;;;;;;;;;;2.00;99.90;;;;;;4999580;28;19933;-68
2023/05/03 05:23:52;;;;;;;;;;;2.00;99.90;;;;;;4999647;28;19922;-66
2023/05/03 05:26:18;;;;;;;;;;;2.00;99.90;;;;;;5003629;28;19921;-67
2023/05/03 05:28:43;;;;;;;;;;;2.20;99.90;;;;;;5006213;28;19979;-67
2023/05/03 05:31:09;;;;;;;;;;;2.20;99.90;;;;;;4999249;28;19947;-66
2023/05/03 05:33:34;;;;;;;;;;;2.30;99.90;;;;;;4999546;28;19921;-67
2023/05/03 05:36:00;;;;;;;;;;;2.40;99.90;;;;;;5004914;28;21292;-67
2023/05/03 05:38:26;;;;;;;;;;;2.60;99.90;;;;;;5003507;28;19947;-67
2023/05/03 05:40:51;;;;;;;;;;;2.70;99.90;;;;;;4998129;28;19937;-67
2023/05/03 05:43:17;;;;;;;;;;;2.80;99.90;;;;;;5001391;28;20008;-67
2023/05/03 05:45:43;;;;;;;;;;;3.00;99.90;;;;;;5002534;28;19921;-68
2023/05/03 05:48:08;;;;;;;;;;;3.10;99.90;;;;;;5002615;28;19961;-67
2023/05/03 05:50:34;;;;;;;;;;;3.20;99.90;;;;;;5003860;28;19921;-67
2023/05/03 05:53:00;;;;;;;;;;;3.40;99.90;;;;;;5003134;28;19932;-67
2023/05/03 05:55:26;;;;;;;;;;;3.50;99.90;;;;;;4990552;28;19976;-66
2023/05/03 05:57:51;;;;;;;;;;;3.60;99.90;;;;;;4996967;28;19933;-65
2023/05/03 06:00:18;;;;;;;;;;;3.80;99.90;;;;;;5007816;28;20019;-67
2023/05/03 06:02:43;;;;;;;;;;;3.90;99.90;;;;;;4996196;28;19936;-67
2023/05/03 06:05:10;;;;;;;;;;;4.10;99.90;;;;;;5007288;28;19926;-67
2023/05/03 06:07:35;;;;;;;;;;;4.20;99.90;;;;;;5008651;28;20335;-66
2023/05/03 06:10:01;;;;;;;;;;;4.30;99.90;;;;;;4995967;28;19926;-67
2023/05/03 06:12:27;;;;;;;;;;;4.40;99.90;;;;;;5006080;28;19929;-67
2023/05/03 06:14:52;;;;;;;;;;;4.50;99.90;;;;;;5008693;28;20386;-65
2023/05/03 06:17:18;;;;;;;;;;;4.60;99.90;;;;;;4996751;28;20783;-65
2023/05/03 06:19:43;;;;;;;;;;;4.80;99.90;;;;;;4983860;28;19932;-65
2023/05/03 06:22:10;;;;;;;;;;;4.90;99.90;;;;;;4985372;28;19936;-65
2023/05/03 06:24:35;;;;;;;;;;;5.00;99.90;;;;;;4993331;28;19925;-65
2023/05/03 06:27:01;;;;;;;;;;;5.10;99.90;;;;;;5022347;28;19929;-67
2023/05/03 06:29:28;;;;;;;;;;;5.20;99.90;;;;;;4987235;28;19995;-65
2023/05/03 06:31:53;;;;;;;;;;;5.40;99.90;;;;;;4992410;28;19937;-65
2023/05/03 06:34:20;;;;;;;;;;;5.50;99.90;;;;;;4990279;28;19930;-66
2023/05/03 06:36:46;;;;;;;;;;;5.70;99.90;;;;;;4983419;28;19926;-66
2023/05/03 06:39:11;;;;;;;;;;;5.80;99.90;;;;;;4989765;28;19929;-66
2023/05/03 06:41:37;;;;;;;;;;;5.90;99.90;;;;;;4993468;28;19926;-63
2023/05/03 06:44:08;;;;;;;;;;;6.00;99.90;;;;;;4993982;28;19929;-67
2023/05/03 06:46:34;;;;;;;;;;;6.10;99.90;;;;;;4990802;28;19934;-66
2023/05/03 06:49:00;;;;;;;;;;;6.20;99.90;;;;;;4995677;28;19929;-63
2023/05/03 06:51:31;;;;;;;;;;;6.40;99.90;;;;;;4988590;28;19922;-66
2023/05/03 06:53:59;;;;;;;;;;;6.50;99.90;;;;;;4999819;28;19921;-66
2023/05/03 06:56:25;;;;;;;;;;;6.70;99.90;;;;;;5005213;28;19922;-66
2023/05/03 06:58:50;;;;;;;;;;;6.90;99.90;;;;;;4996581;28;19948;-66
2023/05/03 07:01:17;;;;;;;;;;;7.10;99.90;;;;;;5004043;28;19922;-65
2023/05/03 07:03:43;;;;;;;;;;;7.20;99.90;;;;;;4999889;28;20406;-66
2023/05/03 07:06:09;;;;;;;;;;;7.30;99.90;;;;;;5000954;28;19926;-66
2023/05/03 07:08:34;;;;;;;;;;;7.50;99.90;;;;;;5014780;28;19921;-65
2023/05/03 07:11:00;;;;;;;;;;;7.70;99.90;;;;;;5000863;28;19949;-66
2023/05/03 07:13:25;;;;;;;;;;;7.80;99.90;;;;;;5006395;28;20335;-66
2023/05/03 07:15:51;;;;;;;;;;;8.00;99.90;;;;;;5007988;28;19972;-66
2023/05/03 07:18:16;;;;;;;;;;;8.10;99.90;;;;;;4998372;28;19975;-65
2023/05/03 07:20:42;;;;;;;;;;;8.10;99.90;;;;;;5008176;28;20571;-67
2023/05/03 07:23:07;;;;;;;;;;;8.30;99.90;;;;;;5005573;28;19932;-67
2023/05/03 07:25:33;;;;;;;;;;;8.40;99.90;;;;;;5000688;28;19965;-65
2023/05/03 07:27:59;;;;;;;;;;;8.60;99.90;;;;;;5007053;28;20307;-66
2023/05/03 07:30:24;;;;;;;;;;;8.70;99.90;;;;;;5006756;28;19922;-67
2023/05/03 07:32:50;;;;;;;;;;;8.80;99.90;;;;;;5006201;28;19929;-66
2023/05/03 07:35:15;;;;;;;;;;;8.90;99.90;;;;;;5001716;28;19972;-67
2023/05/03 07:37:41;;;;;;;;;;;9.00;99.90;;;;;;5009547;28;20076;-66
2023/05/03 07:40:07;;;;;;;;;;;9.10;99.90;;;;;;5014636;28;19921;-68
2023/05/03 07:42:32;;;;;;;;;;;9.10;99.90;;;;;;5007472;28;19929;-66
2023/05/03 07:44:59;;;;;;;;;;;9.20;99.90;;;;;;5004370;28;20016;-65
2023/05/03 07:47:26;;;;;;;;;;;9.30;99.90;;;;;;5006558;28;20420;-67
2023/05/03 07:49:52;;;;;;;;;;;9.40;99.90;;;;;;5013970;28;20446;-65
2023/05/03 07:52:17;;;;;;;;;;;9.50;99.90;;;;;;5002315;28;19928;-67
2023/05/03 07:54:44;;;;;;;;;;;9.60;99.90;;;;;;4997007;28;20012;-64
2023/05/03 07:57:13;;;;;;;;;;;9.70;99.90;;;;;;5008433;28;19925;-65
2023/05/03 07:59:39;;;;;;;;;;;9.80;99.90;;;;;;5009957;28;20007;-66
2023/05/03 08:02:05;;;;;;;;;;;10.10;99.90;;;;;;5001935;28;19977;-65
2023/05/03 08:04:30;;;;;;;;;;;10.30;99.90;;;;;;5014202;28;20012;-65
2023/05/03 08:06:58;;;;;;;;;;;10.30;99.90;;;;;;5014437;28;19928;-65
2023/05/03 08:09:24;;;;;;;;;;;10.50;99.90;;;;;;5000442;28;19980;-65
2023/05/03 08:11:50;;;;;;;;;;;10.40;99.90;;;;;;5011233;28;20292;-68
2023/05/03 08:14:16;;;;;;;;;;;10.50;99.90;;;;;;5014823;28;19968;-68
2023/05/03 08:16:41;;;;;;;;;;;10.40;99.90;;;;;;5000448;28;19933;-67
2023/05/03 08:19:07;;;;;;;;;;;10.30;99.90;;;;;;5001348;28;20008;-67
2023/05/03 08:21:34;;;;;;;;;;;10.30;99.90;;;;;;5013423;28;19926;-67
2023/05/03 08:23:59;;;;;;;;;;;10.30;99.90;;;;;;5013663;28;19925;-65
2023/05/03 08:26:27;;;;;;;;;;;10.30;99.90;;;;;;5010368;28;19976;-65
2023/05/03 08:28:53;;;;;;;;;;;10.30;99.90;;;;;;5005630;28;20407;-67
2023/05/03 08:31:18;;;;;;;;;;;10.30;99.90;;;;;;5003189;28;19921;-66
2023/05/03 08:33:44;;;;;;;;;;;10.30;99.90;;;;;;5006434;28;20294;-65
2023/05/03 08:36:10;;;;;;;;;;;10.40;99.90;;;;;;5006025;28;19925;-65
2023/05/03 08:38:40;;;;;;;;;;;10.50;99.90;;;;;;5012076;28;19967;-65
2023/05/03 08:41:15;;;;;;;;;;;10.40;99.90;;;;;;5009128;28;19926;-65
2023/05/03 08:43:42;;;;;;;;;;;10.40;99.90;;;;;;5008622;28;19925;-67
2023/05/03 08:46:10;;;;;;;;;;;10.40;99.90;;;;;;5013518;28;20319;-65
2023/05/03 08:48:35;;;;;;;;;;;10.50;99.90;;;;;;5012186;28;20380;-65
2023/05/03 08:51:03;;;;;;;;;;;10.50;99.90;;;;;;5001448;28;19921;-65
2023/05/03 08:53:29;;;;;;;;;;;10.70;99.90;;;;;;5012805;28;20008;-65
2023/05/03 08:55:54;;;;;;;;;;;10.90;99.90;;;;;;5013149;28;20055;-65
2023/05/03 08:58:20;;;;;;;;;;;11.00;99.90;;;;;;5009417;28;19930;-66
2023/05/03 09:00:45;;;;;;;;;;;10.90;99.90;;;;;;4992752;28;19922;-65
2023/05/03 09:03:11;;;;;;;;;;;10.90;99.90;;;;;;5010590;28;19926;-65
2023/05/03 09:05:39;;;;;;;;;;;10.80;99.90;;;;;;5006873;28;19929;-65
2023/05/03 09:08:08;;;;;;;;;;;10.70;99.90;;;;;;5006699;28;19922;-65
2023/05/03 09:10:38;;;;;;;;;;;10.70;99.90;;;;;;5012630;28;19945;-66
2023/05/03 09:13:05;;;;;;;;;;;10.80;99.90;;;;;;5012865;28;19925;-67
2023/05/03 09:15:33;;;;;;;;;;;10.90;99.90;;;;;;5006769;28;20057;-67
2023/05/03 09:18:05;;;;;;;;;;;11.00;99.90;;;;;;5005906;28;19928;-65
2023/05/03 09:20:35;;;;;;;;;;;11.10;99.90;;;;;;5013554;28;20012;-65
2023/05/03 09:23:01;;;;;;;;;;;11.20;99.90;;;;;;5005146;28;19930;-65
2023/05/03 09:25:42;;;;;;;;;;;11.30;99.90;;;;;;5001390;28;20025;-65
2023/05/03 09:28:08;;;;;;;;;;;11.40;99.90;;;;;;5013164;28;20004;-65
2023/05/03 09:30:33;;;;;;;;;;;11.20;98.90;;;;;;5012592;28;20024;-65
2023/05/03 09:32:59;;;;;;;;;;;11.40;99.90;;;;;;5004213;28;19928;-66
2023/05/03 09:35:24;;;;;;;;;;;11.60;99.90;;;;;;5009725;28;19921;-65
2023/05/03 09:37:50;;;;;;;;;;;11.90;99.40;;;;;;5012982;28;19940;-65
2023/05/03 09:40:17;;;;;;;;;;;12.10;99.90;;;;;;5001250;28;20429;-65
2023/05/03 09:43:01;;;;;;;;;;;12.30;99.90;;;;;;5004950;28;19930;-65
2023/05/03 09:45:26;;;;;;;;;;;12.40;99.90;;;;;;5006312;28;20376;-65
2023/05/03 09:47:54;;;;;;;;;;;12.10;99.50;;;;;;4999661;28;19942;-65
2023/05/03 09:50:20;;;;;;;;;;;12.00;97.20;;;;;;5018611;28;19992;-67
2023/05/03 09:52:47;;;;;;;;;;;12.10;99.90;;;;;;5020458;28;19925;-68
2023/05/03 09:55:15;;;;;;;;;;;12.00;98.50;;;;;;5033144;28;19921;-67
2023/05/03 09:57:41;;;;;;;;;;;11.80;99.90;;;;;;4989958;28;19948;-67
2023/05/03 10:00:07;;;;;;;;;;;12.00;98.60;;;;;;4994958;28;19928;-67
2023/05/03 10:02:34;;;;;;;;;;;12.30;99.90;;;;;;5008384;28;19926;-66
2023/05/03 10:05:00;;;;;;;;;;;12.40;99.90;;;;;;4988253;28;19932;-66
2023/05/03 10:07:26;;;;;;;;;;;12.40;99.30;;;;;;5003617;28;19925;-67
2023/05/03 10:09:52;;;;;;;;;;;12.70;99.30;;;;;;5010564;28;20300;-66
2023/05/03 10:12:18;;;;;;;;;;;12.70;98.40;;;;;;5004148;28;19997;-65
2023/05/03 10:14:44;;;;;;;;;;;12.90;99.50;;;;;;4990549;28;20340;-67
2023/05/03 10:17:19;;;;;;;;;;;13.20;99.90;;;;;;5009359;28;20564;-67
2023/05/03 10:19:53;;;;;;;;;;;13.30;98.20;;;;;;5010331;28;19921;-66
2023/05/03 10:22:18;;;;;;;;;;;13.60;99.90;;;;;;5003646;28;20005;-66
2023/05/03 10:24:56;;;;;;;;;;;13.80;97.80;;;;;;5005245;28;19996;-67
2023/05/03 10:27:21;;;;;;;;;;;13.70;95.80;;;;;;5014710;28;20446;-67
2023/05/03 10:29:49;;;;;;;;;;;13.60;97.70;;;;;;4989017;28;19925;-68
2023/05/03 10:32:34;;;;;;;;;;;13.60;97.90;;;;;;5011067;28;20406;-66
2023/05/03 10:35:05;;;;;;;;;;;13.40;97.30;;;;;;5012353;28;19921;-67
2023/05/03 10:37:31;;;;;;;;;;;13.10;96.70;;;;;;5003867;28;20020;-66
2023/05/03 10:40:04;;;;;;;;;;;12.80;95.80;;;;;;4994603;28;20411;-66
2023/05/03 10:42:29;;;;;;;;;;;12.60;98.10;;;;;;5011759;28;19998;-66
2023/05/03 10:44:56;;;;;;;;;;;12.70;97.80;;;;;;5012207;28;20447;-67
2023/05/03 10:47:23;;;;;;;;;;;12.70;98.30;;;;;;5007776;28;19961;-67
2023/05/03 10:50:04;;;;;;;;;;;12.90;97.70;;;;;;5008834;28;20291;-65
2023/05/03 10:52:38;;;;;;;;;;;12.90;98.60;;;;;;5005105;28;20347;-66
2023/05/03 10:55:09;;;;;;;;;;;12.70;98.70;;;;;;5004690;28;20431;-66
2023/05/03 10:57:36;;;;;;;;;;;12.80;98.30;;;;;;4998081;28;20341;-67
2023/05/03 11:00:07;;;;;;;;;;;12.90;99.00;;;;;;5008439;28;20396;-67
2023/05/03 11:02:34;;;;;;;;;;;13.00;97.30;;;;;;5021791;28;19925;-67
2023/05/03 11:05:03;;;;;;;;;;;13.00;96.20;;;;;;4999797;28;19999;-67
2023/05/03 11:07:30;;;;;;;;;;;13.20;96.50;;;;;;5011361;28;19929;-67
2023/05/03 11:09:56;;;;;;;;;;;13.20;98.20;;;;;;5012283;28;20001;-67
2023/05/03 11:12:21;;;;;;;;;;;13.30;96.10;;;;;;5005461;28;19950;-65
2023/05/03 11:14:49;;;;;;;;;;;13.10;96.40;;;;;;5007965;28;20016;-67
2023/05/03 11:17:14;;;;;;;;;;;13.10;96.30;;;;;;5011629;28;20008;-67
2023/05/03 11:19:41;;;;;;;;;;;13.20;98.70;;;;;;4997556;28;20087;-65
2023/05/03 11:22:07;;;;;;;;;;;13.40;98.20;;;;;;5008311;28;20276;-65
2023/05/03 11:24:32;;;;;;;;;;;13.80;99.90;;;;;;5016803;28;20441;-65
2023/05/03 11:26:58;;;;;;;;;;;13.90;98.80;;;;;;5022299;28;19957;-66
2023/05/03 11:29:24;;;;;;;;;;;13.90;98.00;;;;;;5008415;28;19926;-65
2023/05/03 11:31:50;;;;;;;;;;;13.90;96.50;;;;;;5011801;28;20002;-65
2023/05/03 11:34:16;;;;;;;;;;;13.90;95.50;;;;;;5027027;28;20376;-65
2023/05/03 11:36:41;;;;;;;;;;;14.00;96.30;;;;;;4999167;28;19969;-65
2023/05/03 11:39:08;;;;;;;;;;;14.00;95.60;;;;;;4992221;28;19921;-65
2023/05/03 11:41:34;;;;;;;;;;;14.10;96.60;;;;;;5008997;28;20368;-65
2023/05/03 11:44:00;;;;;;;;;;;14.00;96.40;;;;;;5011695;28;19925;-65
2023/05/03 11:46:27;;;;;;;;;;;14.00;93.80;;;;;;5002356;28;19940;-65
2023/05/03 11:48:52;;;;;;;;;;;14.10;94.60;;;;;;5006972;28;19925;-65
2023/05/03 11:51:22;;;;;;;;;;;13.90;92.50;;;;;;5019476;28;19975;-65
2023/05/03 11:53:47;;;;;;;;;;;13.80;92.80;;;;;;5004203;28;19980;-66
2023/05/03 11:56:14;;;;;;;;;;;13.80;93.30;;;;;;5008542;28;20346;-65
2023/05/03 11:58:59;;;;;;;;;;;13.80;96.30;;;;;;5008159;28;19922;-65
2023/05/03 12:01:28;;;;;;;;;;;13.90;95.30;;;;;;5006674;28;19921;-65
2023/05/03 12:03:57;;;;;;;;;;;14.10;94.80;;;;;;5012812;28;19994;-66
2023/05/03 12:06:23;;;;;;;;;;;14.30;96.20;;;;;;5009917;28;19922;-64
2023/05/03 12:08:49;;;;;;;;;;;14.40;95.10;;;;;;5006081;28;19921;-66
2023/05/03 12:11:14;;;;;;;;;;;14.40;95.50;;;;;;5007417;28;19926;-65
2023/05/03 12:13:40;;;;;;;;;;;14.70;97.20;;;;;;5006885;28;19926;-65
2023/05/03 12:16:06;;;;;;;;;;;14.70;95.70;;;;;;5014175;28;19921;-66
2023/05/03 12:18:45;;;;;;;;;;;14.90;95.40;;;;;;5004542;28;20025;-65
2023/05/03 12:21:14;;;;;;;;;;;14.90;93.30;;;;;;5009176;28;19972;-65
2023/05/03 12:23:40;;;;;;;;;;;15.10;94.00;;;;;;5014864;28;20383;-65
2023/05/03 12:26:06;;;;;;;;;;;15.00;92.70;;;;;;5003267;28;20015;-65
2023/05/03 12:28:32;;;;;;;;;;;15.00;92.40;;;;;;5010711;28;19969;-65
2023/05/03 12:30:58;;;;;;;;;;;15.00;93.90;;;;;;5014035;28;19980;-65
2023/05/03 12:33:24;;;;;;;;;;;14.90;93.60;;;;;;5014686;28;20383;-65
2023/05/03 12:35:50;;;;;;;;;;;15.00;92.80;;;;;;5007502;28;19928;-65
2023/05/03 12:38:15;;;;;;;;;;;15.10;92.40;;;;;;5013532;28;19921;-65
2023/05/03 12:40:41;;;;;;;;;;;15.10;91.80;;;;;;5014591;28;19976;-66
2023/05/03 12:43:06;;;;;;;;;;;15.20;94.90;;;;;;5010844;28;19941;-65
2023/05/03 12:45:32;;;;;;;;;;;15.20;92.40;;;;;;5013455;28;20008;-66
2023/05/03 12:47:58;;;;;;;;;;;15.30;91.40;;;;;;5013670;28;20296;-65
2023/05/03 12:50:23;;;;;;;;;;;15.40;92.10;;;;;;5014471;28;19976;-66
2023/05/03 12:52:49;;;;;;;;;;;15.50;93.90;;;;;;5008278;28;19922;-66
2023/05/03 12:55:15;;;;;;;;;;;15.60;95.40;;;;;;5013812;28;19980;-65
2023/05/03 12:57:41;;;;;;;;;;;15.70;94.00;;;;;;5029347;28;19926;-65
2023/05/03 13:00:08;;;;;;;;;;;15.60;93.10;;;;;;4996735;28;20519;-65
2023/05/03 13:02:33;;;;;;;;;;;15.80;92.80;;;;;;5005884;28;20307;-66
2023/05/03 13:04:59;;;;;;;;;;;16.00;93.80;;;;;;5013593;28;19922;-65
2023/05/03 13:07:26;;;;;;;;;;;16.10;93.00;;;;;;5025297;28;19925;-65
2023/05/03 13:09:53;;;;;;;;;;;16.10;91.30;;;;;;4999382;28;19921;-66
2023/05/03 13:12:20;;;;;;;;;;;16.20;94.30;;;;;;5021784;28;19921;-66
2023/05/03 13:14:46;;;;;;;;;;;16.10;91.30;;;;;;5012153;28;19922;-66
2023/05/03 13:17:12;;;;;;;;;;;16.20;94.50;;;;;;5007877;28;19925;-66
2023/05/03 13:19:39;;;;;;;;;;;16.10;91.60;;;;;;5010692;28;19975;-65
2023/05/03 13:22:04;;;;;;;;;;;16.00;90.90;;;;;;5013691;28;19932;-66
2023/05/03 13:24:30;;;;;;;;;;;16.00;93.00;;;;;;5005525;28;19925;-66
2023/05/03 13:26:55;;;;;;;;;;;16.00;91.10;;;;;;5009260;28;19977;-65
2023/05/03 13:29:21;;;;;;;;;;;16.20;92.00;;;;;;5012923;28;19957;-65
2023/05/03 13:31:47;;;;;;;;;;;16.20;92.00;;;;;;5012221;28;20281;-65
2023/05/03 13:34:12;;;;;;;;;;;16.40;92.00;;;;;;5002131;28;20499;-65
2023/05/03 13:36:38;;;;;;;;;;;16.40;92.60;;;;;;5008070;28;19922;-65
2023/05/03 13:39:05;;;;;;;;;;;16.20;92.40;;;;;;5011837;28;19985;-65
2023/05/03 13:41:30;;;;;;;;;;;16.10;90.70;;;;;;5010237;28;20490;-65
2023/05/03 13:43:56;;;;;;;;;;;16.20;93.50;;;;;;4999905;28;20016;-65
2023/05/03 13:46:22;;;;;;;;;;;16.20;92.70;;;;;;5013167;28;19989;-65
2023/05/03 13:48:47;;;;;;;;;;;16.40;92.30;;;;;;5013010;28;19926;-66
2023/05/03 13:51:13;;;;;;;;;;;16.50;91.80;;;;;;5007400;28;19922;-66
2023/05/03 13:53:39;;;;;;;;;;;16.50;91.00;;;;;;5008709;28;19921;-65
2023/05/03 13:56:05;;;;;;;;;;;16.50;92.00;;;;;;5013079;28;20375;-65
2023/05/03 13:58:30;;;;;;;;;;;16.40;91.30;;;;;;5000303;28;20432;-65
2023/05/03 14:00:56;;;;;;;;;;;16.50;91.40;;;;;;5010452;28;20004;-65
2023/05/03 14:03:23;;;;;;;;;;;16.50;90.00;;;;;;5010874;28;21293;-65
2023/05/03 14:05:49;;;;;;;;;;;16.40;87.60;;;;;;5003124;28;21662;-65
2023/05/03 14:08:15;;;;;;;;;;;16.60;90.50;;;;;;5001014;28;19922;-66
2023/05/03 14:10:41;;;;;;;;;;;16.80;89.70;;;;;;5011218;28;19925;-66
2023/05/03 14:13:07;;;;;;;;;;;16.80;90.60;;;;;;5012245;28;20376;-66
2023/05/03 14:15:36;;;;;;;;;;;16.70;87.10;;;;;;4992117;28;19976;-65
2023/05/03 14:18:02;;;;;;;;;;;16.70;86.70;;;;;;5000091;28;20387;-65
2023/05/03 14:20:28;;;;;;;;;;;16.50;87.70;;;;;;5012434;28;19979;-66